createdAt,value
2019-03-31T00:01:07.582Z,20.00
2019-03-31T00:02:01.361Z,19.50
2019-03-31T00:03:04.314Z,21.25
2019-03-31T00:04:07.552Z,18.25
2019-03-31T00:05:10.582Z,21.25
2019-03-31T00:06:13.448Z,17.75
2019-03-31T00:07:20.588Z,20.50
2019-03-31T00:08:24.089Z,18.00
2019-03-31T00:09:27.826Z,20.00
2019-03-31T00:10:33.849Z,20.25
2019-03-31T00:11:36.926Z,18.25
2019-03-31T00:12:41.933Z,20.25
2019-03-31T00:13:45.102Z,19.00
2019-03-31T00:14:48.379Z,19.25
2019-03-31T00:15:52.479Z,20.50
2019-03-31T00:16:55.954Z,17.00
2019-03-31T00:17:59.625Z,18.00
2019-03-31T00:19:02.646Z,22.75
2019-03-31T00:20:09.249Z,19.75
2019-03-31T00:21:12.210Z,19.00
2019-03-31T00:22:15.047Z,19.00
2019-03-31T00:23:17.931Z,19.75
2019-03-31T00:24:21.167Z,20.75
2019-03-31T00:25:24.008Z,20.25
2019-03-31T00:26:27.727Z,17.00
2019-03-31T00:27:30.909Z,21.75
2019-03-31T00:28:35.008Z,17.00
2019-03-31T00:29:40.829Z,19.50
2019-03-31T00:30:43.643Z,19.25
2019-03-31T00:31:46.483Z,19.75
2019-03-31T00:32:51.069Z,19.25
2019-03-31T00:33:56.542Z,19.75
2019-03-31T00:35:02.643Z,17.50
2019-03-31T00:36:08.007Z,18.50
2019-03-31T00:37:13.838Z,20.00
2019-03-31T00:38:17.554Z,22.25
2019-03-31T00:39:21.144Z,22.25
2019-03-31T00:40:24.636Z,21.00
2019-03-31T00:41:28.464Z,18.50
2019-03-31T00:42:31.571Z,18.00
2019-03-31T00:43:37.468Z,18.00
2019-03-31T00:44:41.031Z,17.25
2019-03-31T00:45:48.168Z,18.50
2019-03-31T00:46:51.383Z,18.50
2019-03-31T00:47:54.747Z,19.00
2019-03-31T00:48:57.920Z,17.50
2019-03-31T00:50:03.581Z,19.25
2019-03-31T00:51:06.938Z,19.00
2019-03-31T00:52:10.156Z,19.50
2019-03-31T00:53:15.805Z,16.00
2019-03-31T00:54:19.067Z,19.00
2019-03-31T00:55:25.230Z,16.75
2019-03-31T00:56:28.802Z,19.00
2019-03-31T00:57:32.250Z,22.25
2019-03-31T00:58:36.416Z,17.75
2019-03-31T00:59:40.658Z,22.75
2019-03-31T01:01:17.910Z,20.50
2019-03-31T01:02:25.374Z,19.00
2019-03-31T01:03:30.872Z,21.00
2019-03-31T01:04:36.948Z,19.75
2019-03-31T01:05:40.323Z,18.25
2019-03-31T01:06:43.319Z,17.25
2019-03-31T01:07:46.291Z,19.50
2019-03-31T01:08:49.148Z,19.50
2019-03-31T01:09:52.022Z,20.00
2019-03-31T01:10:55.322Z,16.25
2019-03-31T01:11:58.607Z,18.50
2019-03-31T01:13:01.577Z,18.50
2019-03-31T01:14:04.399Z,20.00
2019-03-31T01:15:12.010Z,18.25
2019-03-31T01:16:15.275Z,17.75
2019-03-31T01:17:19.042Z,18.50
2019-03-31T01:18:24.667Z,17.50
2019-03-31T01:19:28.592Z,17.25
2019-03-31T01:20:31.437Z,18.50
2019-03-31T01:21:34.270Z,18.25
2019-03-31T01:22:38.681Z,18.75
2019-03-31T01:23:42.255Z,20.50
2019-03-31T01:24:45.113Z,17.25
2019-03-31T01:25:47.971Z,16.50
2019-03-31T01:26:51.056Z,17.75
2019-03-31T01:27:56.338Z,15.50
2019-03-31T01:28:59.796Z,17.75
2019-03-31T01:30:03.898Z,16.00
2019-03-31T01:31:07.280Z,19.00
2019-03-31T01:32:10.536Z,17.25
2019-03-31T01:33:13.476Z,17.75
2019-03-31T01:34:16.552Z,16.25
2019-03-31T01:35:21.434Z,16.75
2019-03-31T01:36:24.679Z,20.50
2019-03-31T01:37:27.832Z,17.75
2019-03-31T01:38:30.860Z,17.75
2019-03-31T01:39:35.627Z,15.75
2019-03-31T01:40:39.254Z,16.00
2019-03-31T01:41:42.488Z,18.50
2019-03-31T01:42:46.114Z,19.00
2019-03-31T01:43:49.395Z,16.75
2019-03-31T01:44:56.170Z,17.50
2019-03-31T01:46:01.160Z,19.50
2019-03-31T01:47:07.854Z,17.75
2019-03-31T01:48:11.841Z,18.50
2019-03-31T01:49:15.212Z,17.75
2019-03-31T01:50:18.467Z,17.25
2019-03-31T01:51:21.887Z,16.25
2019-03-31T01:52:27.923Z,19.00
2019-03-31T01:53:30.882Z,17.75
2019-03-31T01:54:33.684Z,17.75
2019-03-31T01:55:39.168Z,16.75
2019-03-31T01:56:44.781Z,16.00
2019-03-31T01:57:48.956Z,17.75
2019-03-31T01:58:55.101Z,19.00
2019-03-31T01:59:57.999Z,18.25
2019-03-31T02:01:02.060Z,15.00
2019-03-31T02:02:05.229Z,15.00
2019-03-31T02:03:08.061Z,18.25
2019-03-31T02:04:14.473Z,15.00
2019-03-31T02:05:17.285Z,18.25
2019-03-31T02:06:20.156Z,19.75
2019-03-31T02:07:23.035Z,17.25
2019-03-31T02:08:26.798Z,18.75
2019-03-31T02:09:29.677Z,19.25
2019-03-31T02:10:34.053Z,19.50
2019-03-31T02:11:36.896Z,17.75
2019-03-31T02:12:40.093Z,16.75
2019-03-31T02:13:43.543Z,20.25
2019-03-31T02:14:46.714Z,19.25
2019-03-31T02:15:50.046Z,18.50
2019-03-31T02:16:52.895Z,18.00
2019-03-31T02:17:55.697Z,17.75
2019-03-31T02:18:58.590Z,18.00
2019-03-31T02:20:01.920Z,18.00
2019-03-31T02:21:05.454Z,20.00
2019-03-31T02:22:08.366Z,15.50
2019-03-31T02:23:11.596Z,18.75
2019-03-31T02:24:14.471Z,15.50
2019-03-31T02:25:17.827Z,15.00
2019-03-31T02:26:23.066Z,17.00
2019-03-31T02:27:26.239Z,19.00
2019-03-31T02:28:29.190Z,18.50
2019-03-31T02:29:32.657Z,16.00
2019-03-31T02:30:35.495Z,18.50
2019-03-31T02:31:38.391Z,17.50
2019-03-31T02:32:41.666Z,18.00
2019-03-31T02:33:44.845Z,18.00
2019-03-31T02:34:48.095Z,18.00
2019-03-31T02:35:51.348Z,16.50
2019-03-31T02:36:54.282Z,18.00
2019-03-31T02:37:57.410Z,18.25
2019-03-31T02:39:00.226Z,17.00
2019-03-31T02:40:04.521Z,16.00
2019-03-31T02:41:07.439Z,18.00
2019-03-31T02:42:10.284Z,19.00
2019-03-31T02:43:13.530Z,20.00
2019-03-31T02:44:16.659Z,18.00
2019-03-31T02:45:19.543Z,17.00
2019-03-31T02:46:23.084Z,16.50
2019-03-31T02:47:26.028Z,16.00
2019-03-31T02:48:29.561Z,16.00
2019-03-31T02:49:32.386Z,16.00
2019-03-31T02:50:35.257Z,16.00
2019-03-31T02:51:38.134Z,16.50
2019-03-31T02:52:41.370Z,14.00
2019-03-31T02:53:48.598Z,16.00
2019-03-31T02:54:52.560Z,16.50
2019-03-31T02:55:55.942Z,16.50
2019-03-31T02:56:58.843Z,18.00
2019-03-31T02:58:01.823Z,16.00
2019-03-31T02:59:05.442Z,15.50
2019-03-31T03:00:08.304Z,16.00
2019-03-31T03:01:11.139Z,16.50
2019-03-31T03:02:14.022Z,14.50
2019-03-31T03:03:16.921Z,14.00
2019-03-31T03:04:19.741Z,17.00
2019-03-31T03:05:22.826Z,15.00
2019-03-31T03:06:25.817Z,13.50
2019-03-31T03:07:28.810Z,14.00
2019-03-31T03:08:34.425Z,15.00
2019-03-31T03:09:37.765Z,16.00
2019-03-31T03:10:40.752Z,16.00
2019-03-31T03:11:43.833Z,15.00
2019-03-31T03:12:47.069Z,14.00
2019-03-31T03:13:51.629Z,17.00
2019-03-31T03:14:54.923Z,16.00
2019-03-31T03:15:57.746Z,18.50
2019-03-31T03:17:01.065Z,16.00
2019-03-31T03:18:04.639Z,18.50
2019-03-31T03:19:08.783Z,17.50
2019-03-31T03:20:11.665Z,20.00
2019-03-31T03:21:15.588Z,15.50
2019-03-31T03:22:19.608Z,18.00
2019-03-31T03:23:25.900Z,16.00
2019-03-31T03:24:29.514Z,16.00
2019-03-31T03:25:32.311Z,18.00
2019-03-31T03:26:35.150Z,17.00
2019-03-31T03:27:38.121Z,14.50
2019-03-31T03:28:40.944Z,17.50
2019-03-31T03:29:43.923Z,17.00
2019-03-31T03:30:47.079Z,15.50
2019-03-31T03:31:50.590Z,14.00
2019-03-31T03:33:13.346Z,14.00
2019-03-31T03:33:58.010Z,14.00
2019-03-31T03:35:01.193Z,14.00
2019-03-31T03:36:04.263Z,17.50
2019-03-31T03:37:10.138Z,14.50
2019-03-31T03:38:14.662Z,15.50
2019-03-31T03:39:17.610Z,15.00
2019-03-31T03:40:21.533Z,14.00
2019-03-31T03:41:24.410Z,16.00
2019-03-31T03:42:27.233Z,16.00
2019-03-31T03:43:30.567Z,17.00
2019-03-31T03:44:33.813Z,14.00
2019-03-31T03:45:36.704Z,14.00
2019-03-31T03:46:39.534Z,12.00
2019-03-31T03:47:42.364Z,14.50
2019-03-31T03:48:45.177Z,16.50
2019-03-31T03:49:48.917Z,14.50
2019-03-31T03:50:52.479Z,15.00
2019-03-31T03:51:55.772Z,16.00
2019-03-31T03:52:59.023Z,16.00
2019-03-31T03:54:02.111Z,16.50
2019-03-31T03:55:06.656Z,15.00
2019-03-31T03:56:09.955Z,16.50
2019-03-31T03:57:12.891Z,16.00
2019-03-31T03:58:15.689Z,15.00
2019-03-31T03:59:18.530Z,17.50
2019-03-31T04:00:22.913Z,15.50
2019-03-31T04:01:28.263Z,14.50
2019-03-31T04:02:32.529Z,16.00
2019-03-31T04:03:39.389Z,14.50
2019-03-31T04:04:42.254Z,16.00
2019-03-31T04:05:45.084Z,16.50
2019-03-31T04:06:47.961Z,16.00
2019-03-31T04:07:51.124Z,14.00
2019-03-31T04:08:54.261Z,16.00
2019-03-31T04:09:57.153Z,15.00
2019-03-31T04:10:59.982Z,15.00
2019-03-31T04:12:02.875Z,15.00
2019-03-31T04:13:05.710Z,17.00
2019-03-31T04:14:08.571Z,14.50
2019-03-31T04:15:16.873Z,18.00
2019-03-31T04:16:19.758Z,14.75
2019-03-31T04:17:22.745Z,19.50
2019-03-31T04:18:25.581Z,16.50
2019-03-31T04:19:28.435Z,15.50
2019-03-31T04:20:31.327Z,16.50
2019-03-31T04:21:34.793Z,18.00
2019-03-31T04:22:40.184Z,16.00
2019-03-31T04:23:43.018Z,16.00
2019-03-31T04:24:45.829Z,18.00
2019-03-31T04:25:48.655Z,14.00
2019-03-31T04:26:51.519Z,14.50
2019-03-31T04:27:54.463Z,15.50
2019-03-31T04:28:57.991Z,15.50
2019-03-31T04:30:01.002Z,15.50
2019-03-31T04:31:03.889Z,14.00
2019-03-31T04:32:06.771Z,16.00
2019-03-31T04:33:12.124Z,15.25
2019-03-31T04:34:15.398Z,14.75
2019-03-31T04:35:18.852Z,16.00
2019-03-31T04:36:21.743Z,16.00
2019-03-31T04:37:25.237Z,15.75
2019-03-31T04:38:29.132Z,15.75
2019-03-31T04:39:32.000Z,14.75
2019-03-31T04:40:35.434Z,15.00
2019-03-31T04:41:41.276Z,13.00
2019-03-31T04:42:44.257Z,15.00
2019-03-31T04:43:49.399Z,15.50
2019-03-31T04:44:52.309Z,16.00
2019-03-31T04:45:55.698Z,17.50
2019-03-31T04:47:03.137Z,18.50
2019-03-31T04:48:06.845Z,14.75
2019-03-31T04:49:11.007Z,14.75
2019-03-31T04:50:13.846Z,16.75
2019-03-31T04:51:16.750Z,16.00
2019-03-31T04:52:19.613Z,16.25
2019-03-31T04:53:22.509Z,14.75
2019-03-31T04:54:25.359Z,14.75
2019-03-31T04:55:28.203Z,16.75
2019-03-31T04:56:31.166Z,17.00
2019-03-31T04:57:34.473Z,15.50
2019-03-31T04:58:37.320Z,17.00
2019-03-31T04:59:40.635Z,16.75
2019-03-31T05:00:43.436Z,13.00
2019-03-31T05:01:46.305Z,14.75
2019-03-31T05:02:49.134Z,17.00
2019-03-31T05:04:03.948Z,17.25
2019-03-31T05:04:56.850Z,14.00
2019-03-31T05:05:59.735Z,12.50
2019-03-31T05:07:04.187Z,15.75
2019-03-31T05:08:09.579Z,16.75
2019-03-31T05:09:13.968Z,15.25
2019-03-31T05:10:17.162Z,15.50
2019-03-31T05:11:20.354Z,14.75
2019-03-31T05:12:23.310Z,16.75
2019-03-31T05:13:26.188Z,19.00
2019-03-31T05:14:29.001Z,20.00
2019-03-31T05:15:31.831Z,18.50
2019-03-31T05:16:41.009Z,19.50
2019-03-31T05:17:44.265Z,22.50
2019-03-31T05:18:47.125Z,21.00
2019-03-31T05:19:49.990Z,20.00
2019-03-31T05:20:52.808Z,21.00
2019-03-31T05:21:55.723Z,18.25
2019-03-31T05:22:59.005Z,20.25
2019-03-31T05:24:02.227Z,16.00
2019-03-31T05:25:05.196Z,17.75
2019-03-31T05:26:08.080Z,16.75
2019-03-31T05:27:11.411Z,15.50
2019-03-31T05:28:16.719Z,16.75
2019-03-31T05:29:21.411Z,14.25
2019-03-31T05:44:06.136Z,20.50
2019-03-31T05:45:09.551Z,19.75
2019-03-31T05:46:12.365Z,18.75
2019-03-31T05:47:15.204Z,20.25
2019-03-31T05:48:18.035Z,20.50
2019-03-31T05:49:21.355Z,20.50
2019-03-31T05:50:24.142Z,18.25
2019-03-31T05:51:27.412Z,19.50
2019-03-31T05:52:35.869Z,15.50
2019-03-31T05:53:43.065Z,18.00
2019-03-31T05:54:49.103Z,16.00
2019-03-31T05:55:52.241Z,18.00
2019-03-31T05:56:55.586Z,20.25
2019-03-31T05:57:58.768Z,19.00
2019-03-31T05:59:03.778Z,16.00
2019-03-31T06:00:06.619Z,18.00
2019-03-31T06:01:13.776Z,15.00
2019-03-31T06:02:17.350Z,14.50
2019-03-31T06:03:20.186Z,15.50
2019-03-31T06:04:33.009Z,18.00
2019-03-31T06:05:27.524Z,16.00
2019-03-31T06:06:36.814Z,16.00
2019-03-31T06:07:37.796Z,14.00
2019-03-31T06:08:43.794Z,12.75
2019-03-31T06:09:46.383Z,18.50
2019-03-31T06:10:49.206Z,14.00
2019-03-31T06:11:53.526Z,18.00
2019-03-31T06:12:56.713Z,14.00
2019-03-31T06:14:02.373Z,15.50
2019-03-31T06:15:05.877Z,16.00
2019-03-31T06:16:08.734Z,21.75
2019-03-31T06:17:11.559Z,23.75
2019-03-31T06:18:17.269Z,20.50
2019-03-31T06:19:21.120Z,18.00
2019-03-31T06:20:24.393Z,16.50
2019-03-31T06:21:29.182Z,18.75
2019-03-31T06:22:32.589Z,21.00
2019-03-31T06:23:35.497Z,21.00
2019-03-31T06:24:39.610Z,21.00
2019-03-31T06:25:42.519Z,21.00
2019-03-31T06:26:45.365Z,21.50
2019-03-31T06:27:51.431Z,20.75
2019-03-31T06:28:54.335Z,24.50
2019-03-31T06:29:57.131Z,24.50
2019-03-31T06:31:02.329Z,22.00
2019-03-31T06:32:05.250Z,23.00
2019-03-31T06:33:08.083Z,25.25
2019-03-31T06:34:11.235Z,24.25
2019-03-31T06:35:16.973Z,24.00
2019-03-31T06:36:19.940Z,21.50
2019-03-31T06:37:23.202Z,23.00
2019-03-31T06:38:26.015Z,22.00
2019-03-31T06:39:28.921Z,23.50
2019-03-31T06:40:32.382Z,21.50
2019-03-31T06:41:37.932Z,20.50
2019-03-31T06:42:40.739Z,21.00
2019-03-31T06:43:43.598Z,19.00
2019-03-31T06:44:48.086Z,22.75
2019-03-31T06:45:52.572Z,18.75
2019-03-31T06:46:55.921Z,21.50
2019-03-31T06:47:58.777Z,17.75
2019-03-31T06:49:02.686Z,17.50
2019-03-31T06:50:05.673Z,17.50
2019-03-31T06:51:13.238Z,20.50
2019-03-31T06:52:18.588Z,21.25
2019-03-31T06:53:21.799Z,19.50
2019-03-31T06:54:24.641Z,21.50
2019-03-31T06:55:29.730Z,20.00
2019-03-31T06:56:34.842Z,22.00
2019-03-31T06:57:38.083Z,23.25
2019-03-31T06:58:42.540Z,20.50
2019-03-31T06:59:47.014Z,23.75
2019-03-31T07:00:49.838Z,24.25
2019-03-31T07:01:52.780Z,24.00
2019-03-31T07:02:55.588Z,19.75
2019-03-31T07:03:58.395Z,21.50
2019-03-31T07:05:01.989Z,25.75
2019-03-31T07:06:05.430Z,22.50
2019-03-31T07:07:11.359Z,21.75
2019-03-31T07:08:15.514Z,21.00
2019-03-31T07:09:18.823Z,20.00
2019-03-31T07:10:22.558Z,19.25
2019-03-31T07:11:27.828Z,21.50
2019-03-31T07:12:32.526Z,22.00
2019-03-31T07:13:35.822Z,21.50
2019-03-31T07:14:38.703Z,21.75
2019-03-31T07:15:41.953Z,22.00
2019-03-31T07:16:44.779Z,20.00
2019-03-31T07:17:50.109Z,20.00
2019-03-31T07:18:54.629Z,22.25
2019-03-31T07:20:00.587Z,20.00
2019-03-31T07:21:03.387Z,22.00
2019-03-31T07:22:06.304Z,22.25
2019-03-31T07:23:10.274Z,22.75
2019-03-31T07:24:13.130Z,23.25
2019-03-31T07:25:16.295Z,24.50
2019-03-31T07:26:19.241Z,22.75
2019-03-31T07:27:22.067Z,23.75
2019-03-31T07:28:24.934Z,24.25
2019-03-31T07:29:28.658Z,24.00
2019-03-31T07:30:31.501Z,23.25
2019-03-31T07:31:35.071Z,26.50
2019-03-31T07:32:38.035Z,24.25
2019-03-31T07:33:40.870Z,23.75
2019-03-31T07:34:43.785Z,22.75
2019-03-31T07:35:46.625Z,27.00
2019-03-31T07:36:49.459Z,26.25
2019-03-31T07:37:52.643Z,26.25
2019-03-31T07:38:55.707Z,23.75
2019-03-31T07:39:59.398Z,25.00
2019-03-31T07:41:12.458Z,22.25
2019-03-31T07:42:06.866Z,22.00
2019-03-31T07:43:10.993Z,25.50
2019-03-31T07:44:15.447Z,25.50
2019-03-31T07:45:18.388Z,26.50
2019-03-31T07:46:24.274Z,23.25
2019-03-31T07:47:27.560Z,26.50
2019-03-31T07:48:30.407Z,27.75
2019-03-31T07:49:33.260Z,26.75
2019-03-31T07:50:36.555Z,26.25
2019-03-31T07:51:40.823Z,27.00
2019-03-31T07:52:45.848Z,27.00
2019-03-31T07:53:48.721Z,27.00
2019-03-31T07:54:51.679Z,27.00
2019-03-31T07:55:54.509Z,26.25
2019-03-31T07:56:57.816Z,27.00
2019-03-31T07:58:00.704Z,25.75
2019-03-31T07:59:07.737Z,25.75
2019-03-31T08:00:09.694Z,26.25
2019-03-31T08:01:17.369Z,24.25
2019-03-31T08:02:22.716Z,24.00
2019-03-31T08:03:26.058Z,27.75
2019-03-31T08:04:32.870Z,26.00
2019-03-31T08:05:37.706Z,26.00
2019-03-31T08:06:43.071Z,24.75
2019-03-31T08:07:46.035Z,25.75
2019-03-31T08:08:48.876Z,26.50
2019-03-31T08:09:52.225Z,25.50
2019-03-31T08:10:57.968Z,26.50
2019-03-31T08:12:08.008Z,25.75
2019-03-31T08:13:10.904Z,25.25
2019-03-31T08:14:15.471Z,26.00
2019-03-31T08:15:18.311Z,24.50
2019-03-31T08:16:21.579Z,26.00
2019-03-31T08:17:25.800Z,25.00
2019-03-31T08:18:31.630Z,23.25
2019-03-31T08:19:35.858Z,24.00
2019-03-31T08:20:38.825Z,26.00
2019-03-31T08:21:41.638Z,23.50
2019-03-31T08:22:45.872Z,25.25
2019-03-31T08:23:52.562Z,24.75
2019-03-31T08:24:55.877Z,24.75
2019-03-31T08:25:59.133Z,26.25
2019-03-31T08:27:05.363Z,24.00
2019-03-31T08:28:06.879Z,25.50
2019-03-31T08:29:09.662Z,25.75
2019-03-31T08:30:12.612Z,27.25
2019-03-31T08:31:15.479Z,26.75
2019-03-31T08:32:19.771Z,28.00
2019-03-31T08:33:22.636Z,29.00
2019-03-31T08:34:26.006Z,28.00
2019-03-31T08:35:46.344Z,25.00
2019-03-31T08:36:37.463Z,25.00
2019-03-31T08:37:40.323Z,26.25
2019-03-31T08:38:43.260Z,25.00
2019-03-31T08:39:46.083Z,27.25
2019-03-31T08:40:49.430Z,26.00
2019-03-31T08:41:52.424Z,25.50
2019-03-31T08:42:55.552Z,25.25
2019-03-31T08:43:58.393Z,25.50
2019-03-31T08:45:01.293Z,27.00
2019-03-31T08:46:04.150Z,27.25
2019-03-31T08:47:07.985Z,25.25
2019-03-31T08:48:10.894Z,27.00
2019-03-31T08:49:14.991Z,25.75
2019-03-31T08:50:18.216Z,27.50
2019-03-31T08:51:21.677Z,27.00
2019-03-31T08:52:24.883Z,26.75
2019-03-31T08:53:27.784Z,27.75
2019-03-31T08:54:30.753Z,27.00
2019-03-31T08:55:34.129Z,27.00
2019-03-31T08:56:37.410Z,26.50
2019-03-31T08:57:51.113Z,25.75
2019-03-31T08:58:53.250Z,27.25
2019-03-31T08:59:57.756Z,27.00
2019-03-31T09:01:07.851Z,26.75
2019-03-31T09:02:31.736Z,28.00
2019-03-31T09:03:37.865Z,27.00
2019-03-31T09:04:49.105Z,29.25
2019-03-31T09:06:02.083Z,27.50
2019-03-31T09:07:01.106Z,29.00
2019-03-31T09:08:08.216Z,27.75
2019-03-31T09:09:08.644Z,28.00
2019-03-31T09:10:11.954Z,28.00
2019-03-31T09:11:14.820Z,28.25
2019-03-31T09:12:18.396Z,28.00
2019-03-31T09:13:21.673Z,26.75
2019-03-31T09:14:27.472Z,27.50
2019-03-31T09:15:30.291Z,27.25
2019-03-31T09:16:37.897Z,27.50
2019-03-31T09:17:41.328Z,28.00
2019-03-31T09:18:44.277Z,29.75
2019-03-31T09:19:47.274Z,27.00
2019-03-31T09:20:50.213Z,28.50
2019-03-31T09:22:01.581Z,29.00
2019-03-31T09:23:07.749Z,26.25
2019-03-31T09:24:10.719Z,28.00
2019-03-31T09:25:14.028Z,28.00
2019-03-31T09:26:17.358Z,29.00
2019-03-31T09:27:20.419Z,27.50
2019-03-31T09:28:24.838Z,27.75
2019-03-31T09:29:27.671Z,28.00
2019-03-31T09:30:30.563Z,27.50
2019-03-31T09:31:33.990Z,27.00
2019-03-31T09:32:37.652Z,28.00
2019-03-31T09:33:40.607Z,28.75
2019-03-31T09:34:47.924Z,28.50
2019-03-31T09:35:51.677Z,27.00
2019-03-31T09:36:55.767Z,28.75
2019-03-31T09:37:58.738Z,29.75
2019-03-31T09:39:02.052Z,29.75
2019-03-31T09:40:05.523Z,27.00
2019-03-31T09:41:08.822Z,27.75
2019-03-31T09:42:12.089Z,27.75
2019-03-31T09:43:15.390Z,28.50
2019-03-31T09:44:20.025Z,25.75
2019-03-31T09:45:23.065Z,25.50
2019-03-31T09:46:27.954Z,25.00
2019-03-31T09:47:30.949Z,27.75
2019-03-31T09:48:34.364Z,29.00
2019-03-31T09:49:37.266Z,27.75
2019-03-31T09:50:40.187Z,25.50
2019-03-31T09:51:44.264Z,25.50
2019-03-31T09:52:48.713Z,25.00
2019-03-31T09:53:52.004Z,26.50
2019-03-31T09:54:57.078Z,24.75
2019-03-31T09:55:59.692Z,24.75
2019-03-31T09:57:04.421Z,25.25
2019-03-31T09:58:10.328Z,27.00
2019-03-31T09:59:13.328Z,26.00
2019-03-31T10:00:17.478Z,26.25
2019-03-31T10:01:20.412Z,25.00
2019-03-31T10:02:25.984Z,25.75
2019-03-31T10:03:29.128Z,25.50
2019-03-31T10:04:33.654Z,21.50
2019-03-31T10:05:37.688Z,25.25
2019-03-31T10:06:48.303Z,23.75
2019-03-31T10:07:58.032Z,25.00
2019-03-31T10:09:01.367Z,25.25
2019-03-31T10:10:04.371Z,23.50
2019-03-31T10:11:08.189Z,24.75
2019-03-31T10:12:11.205Z,24.25
2019-03-31T10:13:15.869Z,24.00
2019-03-31T10:14:18.838Z,24.00
2019-03-31T10:15:23.411Z,25.75
2019-03-31T10:16:26.405Z,23.75
2019-03-31T10:17:30.600Z,23.75
2019-03-31T10:18:36.696Z,23.75
2019-03-31T10:19:39.993Z,24.50
2019-03-31T10:20:43.760Z,24.00
2019-03-31T10:21:48.720Z,23.75
2019-03-31T10:22:51.923Z,23.75
2019-03-31T10:23:55.044Z,23.00
2019-03-31T10:25:00.015Z,24.00
2019-03-31T10:26:03.117Z,23.50
2019-03-31T10:27:07.348Z,24.00
2019-03-31T10:28:10.306Z,21.75
2019-03-31T10:29:21.273Z,23.75
2019-03-31T10:43:07.392Z,23.50
2019-03-31T10:44:11.985Z,25.00
2019-03-31T10:45:17.154Z,26.00
2019-03-31T10:46:20.532Z,25.00
2019-03-31T10:47:25.028Z,24.00
2019-03-31T10:48:28.522Z,24.25
2019-03-31T10:49:43.841Z,24.00
2019-03-31T10:50:50.304Z,24.00
2019-03-31T10:51:54.561Z,26.00
2019-03-31T10:53:00.756Z,24.25
2019-03-31T10:54:04.704Z,24.50
2019-03-31T10:55:16.383Z,24.50
2019-03-31T10:56:19.232Z,25.50
2019-03-31T10:57:31.357Z,24.00
2019-03-31T10:58:34.316Z,25.50
2019-03-31T10:59:37.818Z,24.00
2019-03-31T11:00:44.178Z,24.25
2019-03-31T11:01:45.706Z,25.50
2019-03-31T11:02:54.457Z,25.75
2019-03-31T11:03:57.417Z,26.00
2019-03-31T11:05:03.143Z,24.25
2019-03-31T11:06:06.861Z,24.00
2019-03-31T11:07:09.867Z,24.50
2019-03-31T11:08:13.918Z,23.75
2019-03-31T11:09:16.848Z,22.00
2019-03-31T11:10:21.315Z,23.50
2019-03-31T11:11:24.415Z,23.75
2019-03-31T11:12:27.766Z,22.50
2019-03-31T11:13:31.198Z,24.00
2019-03-31T11:14:34.839Z,24.00
2019-03-31T11:15:38.226Z,23.25
2019-03-31T11:16:45.831Z,22.75
2019-03-31T11:17:51.947Z,23.50
2019-03-31T11:18:56.783Z,23.00
2019-03-31T11:20:05.882Z,24.00
2019-03-31T11:21:19.099Z,24.75
2019-03-31T11:23:06.758Z,26.00
2019-03-31T11:23:58.549Z,24.00
2019-03-31T11:25:02.153Z,25.25
2019-03-31T11:26:05.115Z,27.00
2019-03-31T11:27:10.427Z,26.00
2019-03-31T11:28:15.481Z,26.50
2019-03-31T11:29:20.429Z,26.50
2019-03-31T11:30:23.280Z,29.00
2019-03-31T11:31:26.197Z,29.00
2019-03-31T11:32:29.092Z,27.75
2019-03-31T11:33:32.033Z,27.75
2019-03-31T11:34:40.237Z,29.75
2019-03-31T11:35:46.996Z,28.75
2019-03-31T11:36:50.412Z,28.00
2019-03-31T11:37:53.350Z,27.50
2019-03-31T11:39:00.883Z,31.50
2019-03-31T11:40:05.029Z,29.75
2019-03-31T11:41:08.219Z,28.00
2019-03-31T11:42:11.513Z,29.75
2019-03-31T11:43:14.461Z,29.25
2019-03-31T11:44:17.361Z,29.75
2019-03-31T11:45:27.769Z,30.25
2019-03-31T11:46:33.817Z,29.00
2019-03-31T11:47:36.704Z,29.50
2019-03-31T11:48:45.063Z,28.00
2019-03-31T11:49:52.345Z,29.00
2019-03-31T11:50:55.193Z,30.00
2019-03-31T11:51:58.034Z,29.00
2019-03-31T11:53:04.568Z,29.75
2019-03-31T11:54:07.448Z,28.00
2019-03-31T11:55:16.672Z,28.75
2019-03-31T11:56:21.918Z,28.75
2019-03-31T11:57:25.236Z,29.00
2019-03-31T11:58:28.122Z,29.00
2019-03-31T11:59:31.766Z,29.00
2019-03-31T12:00:37.212Z,31.25
2019-03-31T12:01:43.069Z,28.00
2019-03-31T12:02:46.000Z,29.75
2019-03-31T12:03:48.914Z,29.50
2019-03-31T12:04:51.792Z,28.25
2019-03-31T12:05:57.678Z,29.50
2019-03-31T12:07:03.952Z,30.50
2019-03-31T12:08:09.194Z,29.25
2019-03-31T12:09:13.133Z,28.75
2019-03-31T12:10:19.631Z,29.75
2019-03-31T12:11:21.266Z,30.00
2019-03-31T12:12:26.854Z,29.25
2019-03-31T12:13:30.656Z,30.50
2019-03-31T12:14:33.543Z,29.75
2019-03-31T12:15:39.246Z,29.25
2019-03-31T12:16:42.224Z,29.00
2019-03-31T12:17:51.278Z,29.00
2019-03-31T12:18:54.861Z,30.75
2019-03-31T12:19:57.836Z,30.00
2019-03-31T12:21:00.987Z,29.50
2019-03-31T12:22:04.132Z,29.75
2019-03-31T12:23:06.977Z,31.50
2019-03-31T12:24:10.294Z,31.00
2019-03-31T12:25:13.501Z,31.25
2019-03-31T12:26:18.396Z,31.75
2019-03-31T12:27:24.406Z,31.25
2019-03-31T12:28:31.609Z,29.25
2019-03-31T12:29:34.502Z,31.75
2019-03-31T12:30:47.792Z,30.00
2019-03-31T12:31:51.298Z,29.00
2019-03-31T12:32:54.454Z,31.75
2019-03-31T12:33:57.322Z,31.75
2019-03-31T12:35:02.287Z,31.75
2019-03-31T12:36:16.193Z,32.50
2019-03-31T12:37:21.664Z,31.75
2019-03-31T12:38:27.623Z,30.75
2019-03-31T12:39:35.242Z,30.75
2019-03-31T12:40:43.944Z,31.25
2019-03-31T12:41:47.168Z,31.25
2019-03-31T12:42:50.392Z,33.00
2019-03-31T12:43:53.266Z,30.75
2019-03-31T12:44:59.199Z,30.75
2019-03-31T12:46:04.776Z,32.00
2019-03-31T12:47:07.850Z,30.75
2019-03-31T12:48:10.671Z,32.00
2019-03-31T12:49:14.214Z,31.25
2019-03-31T12:50:18.857Z,31.25
2019-03-31T12:51:22.068Z,31.25
2019-03-31T12:52:28.223Z,32.00
2019-03-31T12:53:31.799Z,32.00
2019-03-31T12:54:34.791Z,32.00
2019-03-31T12:55:43.492Z,31.25
2019-03-31T12:56:52.975Z,31.25
2019-03-31T12:58:00.395Z,32.25
2019-03-31T12:59:03.320Z,30.75
2019-03-31T13:00:07.249Z,30.75
2019-03-31T13:01:10.299Z,31.50
2019-03-31T13:02:13.592Z,32.25
2019-03-31T13:03:17.079Z,32.50
2019-03-31T13:04:20.032Z,34.50
2019-03-31T13:05:25.885Z,32.25
2019-03-31T13:06:33.947Z,31.50
2019-03-31T13:07:37.594Z,31.00
2019-03-31T13:08:46.264Z,33.25
2019-03-31T13:09:49.274Z,30.50
2019-03-31T13:10:52.164Z,31.25
2019-03-31T13:12:01.206Z,32.75
2019-03-31T13:13:01.859Z,33.25
2019-03-31T13:14:04.915Z,29.75
2019-03-31T13:15:16.035Z,31.75
2019-03-31T13:16:18.749Z,32.75
2019-03-31T13:17:21.600Z,30.75
2019-03-31T13:18:35.266Z,32.75
2019-03-31T13:19:40.833Z,32.75
2019-03-31T13:20:47.974Z,31.25
2019-03-31T13:21:51.251Z,31.00
2019-03-31T13:22:58.962Z,33.25
2019-03-31T13:24:01.439Z,31.75
2019-03-31T13:25:07.323Z,33.75
2019-03-31T13:26:10.764Z,31.50
2019-03-31T13:27:19.108Z,31.25
2019-03-31T13:28:29.744Z,35.75
2019-03-31T13:29:32.703Z,32.00
2019-03-31T13:30:39.783Z,30.25
2019-03-31T13:31:42.660Z,31.75
2019-03-31T13:32:49.063Z,33.00
2019-03-31T13:33:51.648Z,32.50
2019-03-31T13:34:57.821Z,32.50
2019-03-31T13:36:01.553Z,32.50
2019-03-31T13:37:04.809Z,33.00
2019-03-31T13:38:11.457Z,33.25
2019-03-31T13:39:13.763Z,34.75
2019-03-31T13:40:25.878Z,34.25
2019-03-31T13:41:29.303Z,33.75
2019-03-31T13:42:35.819Z,33.25
2019-03-31T13:43:41.618Z,33.75
2019-03-31T13:44:46.997Z,33.75
2019-03-31T13:45:51.672Z,34.00
2019-03-31T13:46:57.963Z,36.75
2019-03-31T13:48:05.404Z,33.00
2019-03-31T13:49:14.588Z,32.00
2019-03-31T13:50:20.666Z,34.00
2019-03-31T13:51:31.747Z,33.75
2019-03-31T13:52:39.539Z,35.50
2019-03-31T13:53:42.955Z,34.25
2019-03-31T13:54:47.780Z,33.75
2019-03-31T13:55:52.916Z,35.00
2019-03-31T13:56:56.652Z,31.75
2019-03-31T13:58:02.871Z,33.75
2019-03-31T13:59:08.911Z,32.25
2019-03-31T14:00:10.554Z,32.75
2019-03-31T14:01:16.135Z,33.75
2019-03-31T14:02:19.780Z,33.75
2019-03-31T14:03:23.461Z,33.75
2019-03-31T14:04:26.908Z,32.00
2019-03-31T14:05:33.058Z,33.00
2019-03-31T14:06:36.189Z,34.50
2019-03-31T14:07:40.208Z,35.25
2019-03-31T14:08:48.718Z,31.75
2019-03-31T14:09:52.429Z,32.75
2019-03-31T14:10:56.887Z,33.50
2019-03-31T14:12:02.687Z,33.75
2019-03-31T14:13:05.970Z,32.75
2019-03-31T14:14:08.888Z,32.75